sensor_id;sensor_type;location;lat;lon;timestamp;temperature;humidity
11387;DHT22;5748;53.102;8.456;2022-12-18T00:00:27;-1.70;59.50
11387;DHT22;5748;53.102;8.456;2022-12-18T00:02:55;-1.70;59.60
11387;DHT22;5748;53.102;8.456;2022-12-18T00:05:22;-1.70;59.60
11387;DHT22;5748;53.102;8.456;2022-12-18T00:07:49;-1.70;59.60
11387;DHT22;5748;53.102;8.456;2022-12-18T00:10:17;-1.80;59.50
11387;DHT22;5748;53.102;8.456;2022-12-18T00:12:44;-1.80;59.60
11387;DHT22;5748;53.102;8.456;2022-12-18T00:15:12;-1.80;59.60
11387;DHT22;5748;53.102;8.456;2022-12-18T00:17:39;-1.70;59.60
11387;DHT22;5748;53.102;8.456;2022-12-18T00:20:07;-1.80;59.50
11387;DHT22;5748;53.102;8.456;2022-12-18T00:22:36;-1.80;59.60
11387;DHT22;5748;53.102;8.456;2022-12-18T00:25:03;-1.80;59.60
11387;DHT22;5748;53.102;8.456;2022-12-18T00:27:32;-1.80;59.10
11387;DHT22;5748;53.102;8.456;2022-12-18T00:30:02;-1.80;59.50
11387;DHT22;5748;53.102;8.456;2022-12-18T00:32:29;-1.80;59.60
11387;DHT22;5748;53.102;8.456;2022-12-18T00:34:56;-1.80;59.40
11387;DHT22;5748;53.102;8.456;2022-12-18T00:37:23;-1.80;59.40
11387;DHT22;5748;53.102;8.456;2022-12-18T00:39:50;-1.80;59.40
11387;DHT22;5748;53.102;8.456;2022-12-18T00:42:18;-1.80;59.40
11387;DHT22;5748;53.102;8.456;2022-12-18T00:45:05;-1.80;59.40
11387;DHT22;5748;53.102;8.456;2022-12-18T00:47:32;-1.80;59.50
11387;DHT22;5748;53.102;8.456;2022-12-18T00:49:59;-1.90;59.40
11387;DHT22;5748;53.102;8.456;2022-12-18T00:52:26;-1.90;59.30
11387;DHT22;5748;53.102;8.456;2022-12-18T00:54:53;-1.90;59.30
11387;DHT22;5748;53.102;8.456;2022-12-18T00:57:20;-1.90;59.40
11387;DHT22;5748;53.102;8.456;2022-12-18T00:59:47;-1.90;59.40
11387;DHT22;5748;53.102;8.456;2022-12-18T01:02:15;-1.90;59.40
11387;DHT22;5748;53.102;8.456;2022-12-18T01:04:43;-1.90;59.50
11387;DHT22;5748;53.102;8.456;2022-12-18T01:07:10;-2.00;59.40
11387;DHT22;5748;53.102;8.456;2022-12-18T01:09:37;-1.90;59.40
11387;DHT22;5748;53.102;8.456;2022-12-18T01:12:04;-2.00;59.30
11387;DHT22;5748;53.102;8.456;2022-12-18T01:14:32;-2.00;59.50
11387;DHT22;5748;53.102;8.456;2022-12-18T01:16:59;-2.00;58.90
11387;DHT22;5748;53.102;8.456;2022-12-18T01:19:29;-2.00;59.20
11387;DHT22;5748;53.102;8.456;2022-12-18T01:21:57;-2.00;59.30
11387;DHT22;5748;53.102;8.456;2022-12-18T01:24:24;-2.00;59.30
11387;DHT22;5748;53.102;8.456;2022-12-18T01:26:51;-2.00;59.30
11387;DHT22;5748;53.102;8.456;2022-12-18T01:29:18;-2.00;59.10
11387;DHT22;5748;53.102;8.456;2022-12-18T01:31:45;-2.10;59.70
11387;DHT22;5748;53.102;8.456;2022-12-18T01:34:12;-2.10;59.00
11387;DHT22;5748;53.102;8.456;2022-12-18T01:36:41;-2.10;59.10
11387;DHT22;5748;53.102;8.456;2022-12-18T01:39:11;-2.10;58.90
11387;DHT22;5748;53.102;8.456;2022-12-18T01:41:41;-2.10;58.50
11387;DHT22;5748;53.102;8.456;2022-12-18T01:44:57;-2.10;58.90
11387;DHT22;5748;53.102;8.456;2022-12-18T01:47:30;-2.20;58.80
11387;DHT22;5748;53.102;8.456;2022-12-18T01:50:03;-2.20;58.70
11387;DHT22;5748;53.102;8.456;2022-12-18T01:52:45;-2.30;58.60
11387;DHT22;5748;53.102;8.456;2022-12-18T01:55:16;-2.20;58.70
11387;DHT22;5748;53.102;8.456;2022-12-18T01:57:45;-2.30;58.60
11387;DHT22;5748;53.102;8.456;2022-12-18T02:00:16;-2.30;58.60
11387;DHT22;5748;53.102;8.456;2022-12-18T02:02:46;-2.30;58.50
11387;DHT22;5748;53.102;8.456;2022-12-18T02:05:16;-2.30;58.40
11387;DHT22;5748;53.102;8.456;2022-12-18T02:07:55;-2.40;58.40
11387;DHT22;5748;53.102;8.456;2022-12-18T02:10:32;-2.40;58.30
11387;DHT22;5748;53.102;8.456;2022-12-18T02:13:08;-2.50;58.20
11387;DHT22;5748;53.102;8.456;2022-12-18T02:15:44;-2.50;58.20
11387;DHT22;5748;53.102;8.456;2022-12-18T02:18:19;-2.50;58.30
11387;DHT22;5748;53.102;8.456;2022-12-18T02:20:50;-2.60;58.20
11387;DHT22;5748;53.102;8.456;2022-12-18T02:23:39;-2.60;58.30
11387;DHT22;5748;53.102;8.456;2022-12-18T02:26:26;-2.60;58.40
11387;DHT22;5748;53.102;8.456;2022-12-18T02:28:58;-2.60;58.40
11387;DHT22;5748;53.102;8.456;2022-12-18T02:31:31;-2.70;58.30
11387;DHT22;5748;53.102;8.456;2022-12-18T02:34:04;-2.70;58.30
11387;DHT22;5748;53.102;8.456;2022-12-18T02:36:33;-2.70;58.30
11387;DHT22;5748;53.102;8.456;2022-12-18T02:39:02;0.50;61.00
11387;DHT22;5748;53.102;8.456;2022-12-18T02:41:31;-2.80;58.20
11387;DHT22;5748;53.102;8.456;2022-12-18T02:44:00;-2.80;58.20
11387;DHT22;5748;53.102;8.456;2022-12-18T02:46:31;-2.80;58.30
11387;DHT22;5748;53.102;8.456;2022-12-18T02:49:06;-2.80;58.30
11387;DHT22;5748;53.102;8.456;2022-12-18T02:51:50;-2.90;58.20
11387;DHT22;5748;53.102;8.456;2022-12-18T02:54:27;-2.90;58.20
11387;DHT22;5748;53.102;8.456;2022-12-18T02:57:11;-2.90;58.20
11387;DHT22;5748;53.102;8.456;2022-12-18T02:59:47;-2.90;58.10
11387;DHT22;5748;53.102;8.456;2022-12-18T03:02:21;-2.90;58.10
11387;DHT22;5748;53.102;8.456;2022-12-18T03:04:56;-3.00;58.10
11387;DHT22;5748;53.102;8.456;2022-12-18T03:07:34;-3.00;58.20
11387;DHT22;5748;53.102;8.456;2022-12-18T03:10:07;-3.00;57.90
11387;DHT22;5748;53.102;8.456;2022-12-18T03:12:40;-3.00;58.40
11387;DHT22;5748;53.102;8.456;2022-12-18T03:15:13;-3.00;58.40
11387;DHT22;5748;53.102;8.456;2022-12-18T03:17:45;-3.00;58.40
11387;DHT22;5748;53.102;8.456;2022-12-18T03:20:17;-3.10;58.20
11387;DHT22;5748;53.102;8.456;2022-12-18T03:22:50;-3.10;57.80
11387;DHT22;5748;53.102;8.456;2022-12-18T03:25:19;-3.10;58.20
11387;DHT22;5748;53.102;8.456;2022-12-18T03:27:49;-3.20;58.20
11387;DHT22;5748;53.102;8.456;2022-12-18T03:30:18;-3.10;58.40
11387;DHT22;5748;53.102;8.456;2022-12-18T03:32:48;-3.10;58.40
11387;DHT22;5748;53.102;8.456;2022-12-18T03:35:22;-3.10;58.40
11387;DHT22;5748;53.102;8.456;2022-12-18T03:37:52;-3.10;57.90
11387;DHT22;5748;53.102;8.456;2022-12-18T03:40:20;-3.10;58.30
11387;DHT22;5748;53.102;8.456;2022-12-18T03:42:59;-3.10;58.20
11387;DHT22;5748;53.102;8.456;2022-12-18T03:45:32;-3.10;58.20
11387;DHT22;5748;53.102;8.456;2022-12-18T03:48:04;-3.10;58.20
11387;DHT22;5748;53.102;8.456;2022-12-18T03:50:41;-3.20;58.00
11387;DHT22;5748;53.102;8.456;2022-12-18T03:53:23;-3.20;57.60
11387;DHT22;5748;53.102;8.456;2022-12-18T03:55:53;-3.20;57.60
11387;DHT22;5748;53.102;8.456;2022-12-18T03:58:24;-3.20;58.10
11387;DHT22;5748;53.102;8.456;2022-12-18T04:00:55;-3.20;58.20
11387;DHT22;5748;53.102;8.456;2022-12-18T04:03:25;-3.20;58.20
11387;DHT22;5748;53.102;8.456;2022-12-18T04:05:55;-3.20;57.70
11387;DHT22;5748;53.102;8.456;2022-12-18T04:08:24;-3.20;58.20
11387;DHT22;5748;53.102;8.456;2022-12-18T04:10:51;-3.20;58.10
11387;DHT22;5748;53.102;8.456;2022-12-18T04:13:23;-3.20;58.00
11387;DHT22;5748;53.102;8.456;2022-12-18T04:15:51;-3.30;58.00
11387;DHT22;5748;53.102;8.456;2022-12-18T04:18:18;-3.30;58.00
11387;DHT22;5748;53.102;8.456;2022-12-18T04:20:45;-3.30;58.00
11387;DHT22;5748;53.102;8.456;2022-12-18T04:23:12;-3.30;58.00
11387;DHT22;5748;53.102;8.456;2022-12-18T04:25:39;-3.30;57.90
11387;DHT22;5748;53.102;8.456;2022-12-18T04:28:06;-3.40;57.80
11387;DHT22;5748;53.102;8.456;2022-12-18T04:30:35;-3.40;57.80
11387;DHT22;5748;53.102;8.456;2022-12-18T04:33:02;-3.40;57.70
11387;DHT22;5748;53.102;8.456;2022-12-18T04:35:29;-3.40;57.70
11387;DHT22;5748;53.102;8.456;2022-12-18T04:37:56;-3.40;57.80
11387;DHT22;5748;53.102;8.456;2022-12-18T04:40:23;-3.40;57.70
11387;DHT22;5748;53.102;8.456;2022-12-18T04:42:50;-3.50;57.60
11387;DHT22;5748;53.102;8.456;2022-12-18T04:45:17;-3.50;57.70
11387;DHT22;5748;53.102;8.456;2022-12-18T04:47:45;-3.50;57.60
11387;DHT22;5748;53.102;8.456;2022-12-18T04:50:12;-3.50;57.70
11387;DHT22;5748;53.102;8.456;2022-12-18T04:52:39;-3.50;57.70
11387;DHT22;5748;53.102;8.456;2022-12-18T04:55:06;-3.50;57.60
11387;DHT22;5748;53.102;8.456;2022-12-18T04:57:36;-3.50;57.80
11387;DHT22;5748;53.102;8.456;2022-12-18T05:00:04;-3.60;57.60
11387;DHT22;5748;53.102;8.456;2022-12-18T05:02:32;-3.60;57.80
11387;DHT22;5748;53.102;8.456;2022-12-18T05:05:00;-3.60;57.70
11387;DHT22;5748;53.102;8.456;2022-12-18T05:07:27;-3.60;57.70
11387;DHT22;5748;53.102;8.456;2022-12-18T05:09:58;-3.60;57.80
11387;DHT22;5748;53.102;8.456;2022-12-18T05:12:25;-3.60;57.80
11387;DHT22;5748;53.102;8.456;2022-12-18T05:14:52;-3.60;57.80
11387;DHT22;5748;53.102;8.456;2022-12-18T05:17:19;-3.60;57.80
11387;DHT22;5748;53.102;8.456;2022-12-18T05:19:46;-3.60;57.70
11387;DHT22;5748;53.102;8.456;2022-12-18T05:22:15;-3.70;58.00
11387;DHT22;5748;53.102;8.456;2022-12-18T05:24:42;-3.70;57.70
11387;DHT22;5748;53.102;8.456;2022-12-18T05:27:09;-3.70;57.60
11387;DHT22;5748;53.102;8.456;2022-12-18T05:32:04;-3.70;57.30
11387;DHT22;5748;53.102;8.456;2022-12-18T05:34:31;-3.80;57.70
11387;DHT22;5748;53.102;8.456;2022-12-18T05:36:59;-3.80;57.60
11387;DHT22;5748;53.102;8.456;2022-12-18T05:39:28;-3.70;57.80
11387;DHT22;5748;53.102;8.456;2022-12-18T05:41:56;-3.80;57.80
11387;DHT22;5748;53.102;8.456;2022-12-18T05:44:23;-3.80;57.80
11387;DHT22;5748;53.102;8.456;2022-12-18T05:46:50;-3.80;57.80
11387;DHT22;5748;53.102;8.456;2022-12-18T05:49:17;-3.80;57.70
11387;DHT22;5748;53.102;8.456;2022-12-18T05:51:44;-3.80;57.60
11387;DHT22;5748;53.102;8.456;2022-12-18T05:54:11;-3.80;57.60
11387;DHT22;5748;53.102;8.456;2022-12-18T05:56:40;-3.80;57.60
11387;DHT22;5748;53.102;8.456;2022-12-18T05:59:07;-3.80;57.60
11387;DHT22;5748;53.102;8.456;2022-12-18T06:01:35;-3.80;57.60
11387;DHT22;5748;53.102;8.456;2022-12-18T06:04:02;-3.80;57.50
11387;DHT22;5748;53.102;8.456;2022-12-18T06:06:29;-3.80;57.60
11387;DHT22;5748;53.102;8.456;2022-12-18T06:08:56;-3.80;57.50
11387;DHT22;5748;53.102;8.456;2022-12-18T06:11:25;-3.90;57.50
11387;DHT22;5748;53.102;8.456;2022-12-18T06:13:55;-3.90;57.60
11387;DHT22;5748;53.102;8.456;2022-12-18T06:16:22;-3.90;57.80
11387;DHT22;5748;53.102;8.456;2022-12-18T06:18:52;-3.90;57.60
11387;DHT22;5748;53.102;8.456;2022-12-18T06:21:19;-3.90;57.50
11387;DHT22;5748;53.102;8.456;2022-12-18T06:23:46;-3.90;57.60
11387;DHT22;5748;53.102;8.456;2022-12-18T06:26:15;-3.90;57.50
11387;DHT22;5748;53.102;8.456;2022-12-18T06:29:06;-3.90;57.60
11387;DHT22;5748;53.102;8.456;2022-12-18T06:31:33;-3.90;57.60
11387;DHT22;5748;53.102;8.456;2022-12-18T06:34:02;-3.90;57.50
11387;DHT22;5748;53.102;8.456;2022-12-18T06:36:29;-4.00;57.50
11387;DHT22;5748;53.102;8.456;2022-12-18T06:38:57;-4.00;57.50
11387;DHT22;5748;53.102;8.456;2022-12-18T06:41:24;-4.00;57.60
11387;DHT22;5748;53.102;8.456;2022-12-18T06:43:51;-4.00;57.60
11387;DHT22;5748;53.102;8.456;2022-12-18T06:46:20;-4.00;57.50
11387;DHT22;5748;53.102;8.456;2022-12-18T06:48:50;-4.00;57.50
11387;DHT22;5748;53.102;8.456;2022-12-18T06:51:18;-4.00;57.60
11387;DHT22;5748;53.102;8.456;2022-12-18T06:53:46;-4.00;57.60
11387;DHT22;5748;53.102;8.456;2022-12-18T06:56:13;-4.00;57.50
11387;DHT22;5748;53.102;8.456;2022-12-18T06:58:41;-4.00;57.50
11387;DHT22;5748;53.102;8.456;2022-12-18T07:01:10;-4.00;57.50
11387;DHT22;5748;53.102;8.456;2022-12-18T07:03:53;-4.10;57.50
11387;DHT22;5748;53.102;8.456;2022-12-18T07:06:22;-4.10;57.50
11387;DHT22;5748;53.102;8.456;2022-12-18T07:08:51;-4.10;57.60
11387;DHT22;5748;53.102;8.456;2022-12-18T07:11:19;-4.10;57.60
11387;DHT22;5748;53.102;8.456;2022-12-18T07:13:46;-4.10;57.50
11387;DHT22;5748;53.102;8.456;2022-12-18T07:16:15;-4.00;57.70
11387;DHT22;5748;53.102;8.456;2022-12-18T07:18:43;-4.10;57.60
11387;DHT22;5748;53.102;8.456;2022-12-18T07:21:17;-4.00;57.80
11387;DHT22;5748;53.102;8.456;2022-12-18T07:23:45;-4.10;57.80
11387;DHT22;5748;53.102;8.456;2022-12-18T07:26:14;-4.00;57.50
11387;DHT22;5748;53.102;8.456;2022-12-18T07:28:43;-4.00;58.00
11387;DHT22;5748;53.102;8.456;2022-12-18T07:31:12;-4.00;57.90
11387;DHT22;5748;53.102;8.456;2022-12-18T07:33:40;-4.00;58.00
11387;DHT22;5748;53.102;8.456;2022-12-18T07:36:08;-4.00;57.90
11387;DHT22;5748;53.102;8.456;2022-12-18T07:38:46;-4.00;57.90
11387;DHT22;5748;53.102;8.456;2022-12-18T07:41:14;-4.00;57.80
11387;DHT22;5748;53.102;8.456;2022-12-18T07:43:42;-4.00;57.90
11387;DHT22;5748;53.102;8.456;2022-12-18T07:46:10;-3.90;58.00
11387;DHT22;5748;53.102;8.456;2022-12-18T07:48:39;-3.90;57.90
11387;DHT22;5748;53.102;8.456;2022-12-18T07:51:06;-3.30;58.40
11387;DHT22;5748;53.102;8.456;2022-12-18T07:53:34;-3.90;57.90
11387;DHT22;5748;53.102;8.456;2022-12-18T07:56:05;-3.90;58.00
11387;DHT22;5748;53.102;8.456;2022-12-18T07:58:34;-3.90;57.90
11387;DHT22;5748;53.102;8.456;2022-12-18T08:01:03;-3.90;57.90
11387;DHT22;5748;53.102;8.456;2022-12-18T08:03:31;-3.90;58.10
11387;DHT22;5748;53.102;8.456;2022-12-18T08:05:59;-3.90;58.10
11387;DHT22;5748;53.102;8.456;2022-12-18T08:08:27;-3.90;58.30
11387;DHT22;5748;53.102;8.456;2022-12-18T08:10:54;-3.80;58.40
11387;DHT22;5748;53.102;8.456;2022-12-18T08:13:24;-3.80;58.50
11387;DHT22;5748;53.102;8.456;2022-12-18T08:15:58;-3.70;58.60
11387;DHT22;5748;53.102;8.456;2022-12-18T08:18:27;-3.70;58.70
11387;DHT22;5748;53.102;8.456;2022-12-18T08:20:54;-3.60;58.80
11387;DHT22;5748;53.102;8.456;2022-12-18T08:23:22;-3.60;59.40
11387;DHT22;5748;53.102;8.456;2022-12-18T08:25:49;-3.60;58.90
11387;DHT22;5748;53.102;8.456;2022-12-18T08:28:16;-3.50;59.10
11387;DHT22;5748;53.102;8.456;2022-12-18T08:30:45;-3.40;59.30
11387;DHT22;5748;53.102;8.456;2022-12-18T08:33:12;-3.40;59.30
11387;DHT22;5748;53.102;8.456;2022-12-18T08:35:39;-3.30;59.50
11387;DHT22;5748;53.102;8.456;2022-12-18T08:38:06;-3.20;59.60
11387;DHT22;5748;53.102;8.456;2022-12-18T08:40:33;-3.10;59.80
11387;DHT22;5748;53.102;8.456;2022-12-18T08:43:00;-3.00;60.00
11387;DHT22;5748;53.102;8.456;2022-12-18T08:45:46;-2.90;60.20
11387;DHT22;5748;53.102;8.456;2022-12-18T08:48:13;-2.80;60.30
11387;DHT22;5748;53.102;8.456;2022-12-18T08:50:40;-2.70;61.00
11387;DHT22;5748;53.102;8.456;2022-12-18T08:53:07;-2.60;60.40
11387;DHT22;5748;53.102;8.456;2022-12-18T08:55:34;-2.50;60.60
11387;DHT22;5748;53.102;8.456;2022-12-18T08:58:01;-2.40;60.80
11387;DHT22;5748;53.102;8.456;2022-12-18T09:00:28;-2.30;60.90
11387;DHT22;5748;53.102;8.456;2022-12-18T09:02:57;-2.20;61.20
11387;DHT22;5748;53.102;8.456;2022-12-18T09:05:24;-2.10;61.20
11387;DHT22;5748;53.102;8.456;2022-12-18T09:07:51;-1.90;61.30
11387;DHT22;5748;53.102;8.456;2022-12-18T09:10:18;-1.80;61.40
11387;DHT22;5748;53.102;8.456;2022-12-18T09:12:46;-1.70;61.40
11387;DHT22;5748;53.102;8.456;2022-12-18T09:15:19;-1.60;61.50
11387;DHT22;5748;53.102;8.456;2022-12-18T09:17:46;-1.40;61.50
11387;DHT22;5748;53.102;8.456;2022-12-18T09:20:15;-1.30;61.50
11387;DHT22;5748;53.102;8.456;2022-12-18T09:22:42;-1.20;61.70
11387;DHT22;5748;53.102;8.456;2022-12-18T09:25:09;-1.10;61.60
11387;DHT22;5748;53.102;8.456;2022-12-18T09:27:37;-1.00;61.70
11387;DHT22;5748;53.102;8.456;2022-12-18T09:30:06;-0.90;61.70
11387;DHT22;5748;53.102;8.456;2022-12-18T09:32:33;-0.80;61.70
11387;DHT22;5748;53.102;8.456;2022-12-18T09:35:00;-0.70;61.60
11387;DHT22;5748;53.102;8.456;2022-12-18T09:37:29;-0.50;61.60
11387;DHT22;5748;53.102;8.456;2022-12-18T09:39:56;1.20;63.10
11387;DHT22;5748;53.102;8.456;2022-12-18T09:42:23;-0.40;61.60
11387;DHT22;5748;53.102;8.456;2022-12-18T09:44:53;-0.30;61.60
11387;DHT22;5748;53.102;8.456;2022-12-18T09:47:24;-0.20;61.70
11387;DHT22;5748;53.102;8.456;2022-12-18T09:49:57;-0.10;61.70
11387;DHT22;5748;53.102;8.456;2022-12-18T09:52:29;0.50;62.20
11387;DHT22;5748;53.102;8.456;2022-12-18T09:55:03;0.10;61.70
11387;DHT22;5748;53.102;8.456;2022-12-18T09:57:36;0.20;61.80
11387;DHT22;5748;53.102;8.456;2022-12-18T10:00:15;0.30;61.70
11387;DHT22;5748;53.102;8.456;2022-12-18T10:02:44;0.30;61.60
11387;DHT22;5748;53.102;8.456;2022-12-18T10:05:13;0.50;61.60
11387;DHT22;5748;53.102;8.456;2022-12-18T10:07:50;1.40;62.40
11387;DHT22;5748;53.102;8.456;2022-12-18T10:10:30;0.60;61.70
11387;DHT22;5748;53.102;8.456;2022-12-18T10:13:09;0.60;61.60
11387;DHT22;5748;53.102;8.456;2022-12-18T10:15:51;0.70;61.70
11387;DHT22;5748;53.102;8.456;2022-12-18T10:18:38;0.80;61.90
11387;DHT22;5748;53.102;8.456;2022-12-18T10:21:45;0.90;61.80
11387;DHT22;5748;53.102;8.456;2022-12-18T10:24:24;1.00;61.80
11387;DHT22;5748;53.102;8.456;2022-12-18T10:27:04;1.00;61.70
11387;DHT22;5748;53.102;8.456;2022-12-18T10:29:38;1.10;61.70
11387;DHT22;5748;53.102;8.456;2022-12-18T10:32:06;1.20;61.70
11387;DHT22;5748;53.102;8.456;2022-12-18T10:34:34;1.20;61.70
11387;DHT22;5748;53.102;8.456;2022-12-18T10:37:03;1.30;61.50
11387;DHT22;5748;53.102;8.456;2022-12-18T10:39:38;1.30;61.60
11387;DHT22;5748;53.102;8.456;2022-12-18T10:42:13;1.80;62.30
11387;DHT22;5748;53.102;8.456;2022-12-18T10:44:43;1.40;61.50
11387;DHT22;5748;53.102;8.456;2022-12-18T10:47:14;1.50;61.40
11387;DHT22;5748;53.102;8.456;2022-12-18T10:49:47;1.60;61.60
11387;DHT22;5748;53.102;8.456;2022-12-18T10:52:18;1.60;61.40
11387;DHT22;5748;53.102;8.456;2022-12-18T10:54:49;1.70;61.20
11387;DHT22;5748;53.102;8.456;2022-12-18T10:57:35;1.70;61.30
11387;DHT22;5748;53.102;8.456;2022-12-18T11:00:29;1.80;61.30
11387;DHT22;5748;53.102;8.456;2022-12-18T11:02:57;1.80;61.20
11387;DHT22;5748;53.102;8.456;2022-12-18T11:05:28;1.90;61.10
11387;DHT22;5748;53.102;8.456;2022-12-18T11:07:57;1.90;61.10
11387;DHT22;5748;53.102;8.456;2022-12-18T11:10:30;1.90;60.90
11387;DHT22;5748;53.102;8.456;2022-12-18T11:13:12;2.90;61.90
11387;DHT22;5748;53.102;8.456;2022-12-18T11:15:44;1.60;61.20
11387;DHT22;5748;53.102;8.456;2022-12-18T11:18:17;2.00;60.80
11387;DHT22;5748;53.102;8.456;2022-12-18T11:20:52;3.70;62.60
11387;DHT22;5748;53.102;8.456;2022-12-18T11:23:20;2.80;62.00
11387;DHT22;5748;53.102;8.456;2022-12-18T11:25:55;2.10;61.30
11387;DHT22;5748;53.102;8.456;2022-12-18T11:28:29;3.00;62.20
11387;DHT22;5748;53.102;8.456;2022-12-18T11:31:23;2.20;62.00
11387;DHT22;5748;53.102;8.456;2022-12-18T11:33:56;3.00;61.80
11387;DHT22;5748;53.102;8.456;2022-12-18T11:36:30;2.30;61.70
11387;DHT22;5748;53.102;8.456;2022-12-18T11:39:07;2.50;62.30
11387;DHT22;5748;53.102;8.456;2022-12-18T11:41:45;2.60;62.70
11387;DHT22;5748;53.102;8.456;2022-12-18T11:44:42;4.20;64.10
11387;DHT22;5748;53.102;8.456;2022-12-18T11:47:27;3.20;62.50
11387;DHT22;5748;53.102;8.456;2022-12-18T11:50:00;4.30;63.10
11387;DHT22;5748;53.102;8.456;2022-12-18T11:52:33;3.20;61.90
11387;DHT22;5748;53.102;8.456;2022-12-18T11:55:10;4.60;62.50
11387;DHT22;5748;53.102;8.456;2022-12-18T11:57:46;3.30;61.00
11387;DHT22;5748;53.102;8.456;2022-12-18T12:00:23;3.40;61.50
11387;DHT22;5748;53.102;8.456;2022-12-18T12:03:20;4.40;62.00
11387;DHT22;5748;53.102;8.456;2022-12-18T12:06:03;3.50;60.90
11387;DHT22;5748;53.102;8.456;2022-12-18T12:08:50;5.20;62.70
11387;DHT22;5748;53.102;8.456;2022-12-18T12:11:30;3.50;61.00
11387;DHT22;5748;53.102;8.456;2022-12-18T12:14:21;5.10;63.00
11387;DHT22;5748;53.102;8.456;2022-12-18T12:17:04;3.60;60.70
11387;DHT22;5748;53.102;8.456;2022-12-18T12:19:45;3.90;60.70
11387;DHT22;5748;53.102;8.456;2022-12-18T12:22:24;3.60;60.50
11387;DHT22;5748;53.102;8.456;2022-12-18T12:25:04;4.50;60.90
11387;DHT22;5748;53.102;8.456;2022-12-18T12:27:50;3.60;60.20
11387;DHT22;5748;53.102;8.456;2022-12-18T12:30:30;3.50;60.30
11387;DHT22;5748;53.102;8.456;2022-12-18T12:33:12;3.50;59.80
11387;DHT22;5748;53.102;8.456;2022-12-18T12:35:54;4.30;60.60
11387;DHT22;5748;53.102;8.456;2022-12-18T12:38:28;4.10;60.30
11387;DHT22;5748;53.102;8.456;2022-12-18T12:41:00;3.30;59.80
11387;DHT22;5748;53.102;8.456;2022-12-18T12:43:37;3.40;59.80
11387;DHT22;5748;53.102;8.456;2022-12-18T12:46:09;3.40;60.20
11387;DHT22;5748;53.102;8.456;2022-12-18T12:48:41;5.40;61.70
11387;DHT22;5748;53.102;8.456;2022-12-18T12:51:16;5.10;61.50
11387;DHT22;5748;53.102;8.456;2022-12-18T12:53:44;3.30;59.90
11387;DHT22;5748;53.102;8.456;2022-12-18T12:56:15;3.20;60.00
11387;DHT22;5748;53.102;8.456;2022-12-18T12:58:49;4.00;60.60
11387;DHT22;5748;53.102;8.456;2022-12-18T13:01:28;4.20;61.00
11387;DHT22;5748;53.102;8.456;2022-12-18T13:04:08;3.10;59.90
11387;DHT22;5748;53.102;8.456;2022-12-18T13:06:45;4.00;60.80
11387;DHT22;5748;53.102;8.456;2022-12-18T13:09:15;3.10;59.80
11387;DHT22;5748;53.102;8.456;2022-12-18T13:11:43;3.10;59.70
11387;DHT22;5748;53.102;8.456;2022-12-18T13:14:41;3.00;60.20
11387;DHT22;5748;53.102;8.456;2022-12-18T13:17:30;3.00;59.80
11387;DHT22;5748;53.102;8.456;2022-12-18T13:20:10;3.00;59.90
11387;DHT22;5748;53.102;8.456;2022-12-18T13:22:42;3.00;59.80
11387;DHT22;5748;53.102;8.456;2022-12-18T13:25:31;3.00;59.50
11387;DHT22;5748;53.102;8.456;2022-12-18T13:28:03;2.90;59.40
11387;DHT22;5748;53.102;8.456;2022-12-18T13:30:50;2.90;59.50
11387;DHT22;5748;53.102;8.456;2022-12-18T13:33:40;2.90;59.60
11387;DHT22;5748;53.102;8.456;2022-12-18T13:36:30;2.80;59.60
11387;DHT22;5748;53.102;8.456;2022-12-18T13:42:34;2.80;59.70
11387;DHT22;5748;53.102;8.456;2022-12-18T13:45:43;2.80;59.60
11387;DHT22;5748;53.102;8.456;2022-12-18T13:48:21;2.80;59.70
11387;DHT22;5748;53.102;8.456;2022-12-18T13:50:53;2.80;59.90
11387;DHT22;5748;53.102;8.456;2022-12-18T13:53:27;2.70;59.60
11387;DHT22;5748;53.102;8.456;2022-12-18T13:55:57;2.70;59.70
11387;DHT22;5748;53.102;8.456;2022-12-18T13:58:24;2.70;60.20
11387;DHT22;5748;53.102;8.456;2022-12-18T14:00:51;2.70;59.60
11387;DHT22;5748;53.102;8.456;2022-12-18T14:03:22;2.70;59.50
11387;DHT22;5748;53.102;8.456;2022-12-18T14:05:59;2.60;59.50
11387;DHT22;5748;53.102;8.456;2022-12-18T14:08:33;2.60;59.70
11387;DHT22;5748;53.102;8.456;2022-12-18T14:11:04;2.60;59.60
11387;DHT22;5748;53.102;8.456;2022-12-18T14:13:35;2.60;59.60
11387;DHT22;5748;53.102;8.456;2022-12-18T14:16:05;2.60;59.60
11387;DHT22;5748;53.102;8.456;2022-12-18T14:18:42;2.60;59.60
11387;DHT22;5748;53.102;8.456;2022-12-18T14:21:20;2.60;59.60
11387;DHT22;5748;53.102;8.456;2022-12-18T14:23:49;2.50;59.70
11387;DHT22;5748;53.102;8.456;2022-12-18T14:26:22;2.50;59.70
11387;DHT22;5748;53.102;8.456;2022-12-18T14:28:53;2.50;59.80
11387;DHT22;5748;53.102;8.456;2022-12-18T14:31:22;2.50;59.70
11387;DHT22;5748;53.102;8.456;2022-12-18T14:33:50;2.50;59.70
11387;DHT22;5748;53.102;8.456;2022-12-18T14:36:21;2.50;59.70
11387;DHT22;5748;53.102;8.456;2022-12-18T14:38:50;2.50;59.70
11387;DHT22;5748;53.102;8.456;2022-12-18T14:41:20;2.40;59.40
11387;DHT22;5748;53.102;8.456;2022-12-18T14:43:48;2.40;59.60
11387;DHT22;5748;53.102;8.456;2022-12-18T14:46:29;2.40;59.70
11387;DHT22;5748;53.102;8.456;2022-12-18T14:49:03;2.50;59.80
11387;DHT22;5748;53.102;8.456;2022-12-18T14:51:33;2.50;59.70
11387;DHT22;5748;53.102;8.456;2022-12-18T14:54:02;2.40;59.70
11387;DHT22;5748;53.102;8.456;2022-12-18T14:56:34;2.50;59.90
11387;DHT22;5748;53.102;8.456;2022-12-18T14:59:04;2.40;59.70
11387;DHT22;5748;53.102;8.456;2022-12-18T15:01:35;2.50;59.70
11387;DHT22;5748;53.102;8.456;2022-12-18T15:04:04;4.90;61.60
11387;DHT22;5748;53.102;8.456;2022-12-18T15:06:47;2.40;59.40
11387;DHT22;5748;53.102;8.456;2022-12-18T15:09:23;2.40;59.30
11387;DHT22;5748;53.102;8.456;2022-12-18T15:11:56;2.40;59.20
11387;DHT22;5748;53.102;8.456;2022-12-18T15:14:31;2.30;59.40
11387;DHT22;5748;53.102;8.456;2022-12-18T15:17:03;2.30;59.50
11387;DHT22;5748;53.102;8.456;2022-12-18T15:19:37;2.30;59.40
11387;DHT22;5748;53.102;8.456;2022-12-18T15:22:18;2.60;59.50
11387;DHT22;5748;53.102;8.456;2022-12-18T15:24:51;2.20;59.20
11387;DHT22;5748;53.102;8.456;2022-12-18T15:27:25;2.20;59.20
11387;DHT22;5748;53.102;8.456;2022-12-18T15:30:20;4.60;61.70
11387;DHT22;5748;53.102;8.456;2022-12-18T15:32:48;2.20;59.30
11387;DHT22;5748;53.102;8.456;2022-12-18T15:35:18;2.20;59.60
11387;DHT22;5748;53.102;8.456;2022-12-18T15:37:48;2.20;59.50
11387;DHT22;5748;53.102;8.456;2022-12-18T15:40:17;2.20;59.60
11387;DHT22;5748;53.102;8.456;2022-12-18T15:42:45;2.20;59.30
11387;DHT22;5748;53.102;8.456;2022-12-18T15:45:31;2.20;60.10
11387;DHT22;5748;53.102;8.456;2022-12-18T15:47:58;2.20;59.20
11387;DHT22;5748;53.102;8.456;2022-12-18T15:50:26;2.20;59.60
11387;DHT22;5748;53.102;8.456;2022-12-18T15:52:54;2.20;59.40
11387;DHT22;5748;53.102;8.456;2022-12-18T15:55:22;2.20;59.20
11387;DHT22;5748;53.102;8.456;2022-12-18T15:58:09;2.20;59.70
11387;DHT22;5748;53.102;8.456;2022-12-18T16:00:38;2.20;59.80
11387;DHT22;5748;53.102;8.456;2022-12-18T16:03:08;2.30;59.80
11387;DHT22;5748;53.102;8.456;2022-12-18T16:05:35;2.30;59.60
11387;DHT22;5748;53.102;8.456;2022-12-18T16:08:04;2.30;59.50
11387;DHT22;5748;53.102;8.456;2022-12-18T16:10:31;2.30;59.60
11387;DHT22;5748;53.102;8.456;2022-12-18T16:12:58;2.60;59.90
11387;DHT22;5748;53.102;8.456;2022-12-18T16:15:26;2.30;59.40
11387;DHT22;5748;53.102;8.456;2022-12-18T16:17:54;2.30;59.50
11387;DHT22;5748;53.102;8.456;2022-12-18T16:20:22;2.40;59.60
11387;DHT22;5748;53.102;8.456;2022-12-18T16:22:49;2.40;59.60
11387;DHT22;5748;53.102;8.456;2022-12-18T16:25:20;2.40;59.60
11387;DHT22;5748;53.102;8.456;2022-12-18T16:27:48;2.40;59.60